Marathon, FL

3:30 AM EDT on September 21, 2014 (GMT -0400)
APRSWXNET Marathon FL US | Change Station
CLOSE
Current Station
Personal Weather Station
Location: Marathon, FL
Elevation: 13 ft
Nearby Weather Stations

Elev 13 ft 24.76 °N, 80.96 °W | Updated 536 days ago

Thunderstorm
Thunderstorm
82 °F
Feels Like 86 °F
N
9
Wind Variable Wind from East
Gusts 10 mph

Today
High -- | Low -- °F
--% Chance of Precip.
Yesterday
High -- | Low -- °F
Precip. -- in
7:12 AM 7:21 PM
Waning Crescent, 8% visible
Pressure 29.95 in
Visibility 10.0 miles
Clouds Few 2000 ft
Heat Index 86 °F
Dew Point 72 °F
Humidity 68%
Rainfall 0.08 in
Snow Depth Not available.
UV 0 out of 12
Pollen 3.40 out of 12
Air Quality Not available.
Flu Activity Not available.
METAR KNQX 210653Z AUTO 10004KT 10SM FEW020 27/23 A2995 RMK AO2 SLP140 T02670233 $

More Conditions Fewer Conditions

Pressure 29.95 in
Visibility 10.0 miles
Clouds Few 2000 ft
Heat Index 86 °F
Dew Point 72 °F
Humidity 68%
Rainfall 0.08 in
Snow Depth Not available.
UV 0 out of 12
Pollen 3.40 out of 12
Air Quality Not available.
Flu Activity Not available.
METAR KNQX 210653Z AUTO 10004KT 10SM FEW020 27/23 A2995 RMK AO2 SLP140 T02670233 $

More Conditions Fewer Conditions

10-Day Weather Forecast

Almanac

Astronomy

Sep. 21, 2014 Rise Set
Actual Time 7:12 AM EDT 7:21 PM EDT
Civil Twilight 6:49 AM EDT 7:44 PM EDT
Nautical Twilight 6:22 AM EDT 8:10 PM EDT
Astronomical Twilight 5:56 AM EDT 8:37 PM EDT
Moon 4:56 AM EDT 5:47 PM EDT
Length of Visible Light 12h 54m
Length of Day
12h 09m
Tomorrow will be 1m 26s shorter.
Waning Crescent, 8% of the Moon is Illuminated
Today
Waning Crescent
Sep 24
New
Oct 1
First Quarter
Oct 8
Full
Oct 15
Last Quarter

Today's Extremes

State Highs State Lows

Community

WunderPhotos

Upload Photos

1,755,101 photos uploaded!

Nearby

Snow Depth

Station Depth Elevation
No new snow has been reported.

Earthquake Activity

City Distance Mag. Time & Date
No recent earthquake activity has been reported nearby.
Minimum magnitude displayed is 2.5.

Coastal Water Temperatures

Place Temperature
Vaca Key, FL 84.9 °F
Key West, FL 84.9 °F

Nearby Weather Stations